Time;durP1;ratioP1;P1;durP2;ratioP2;P2;SDS_P1;SDS_P2;PMS_P1;PMS_P2;Temp;Humidity;BMP_temperature;BMP_pressure;BME280_temperature;BME280_humidity;BME280_pressure;Samples;Min_cycle;Max_cycle;Signal;HPM_P1;HPM_P2
2021/12/04 00:00:01;;;;;;;29.80;23.20;;;;;;;10.28;86.29;98756.53;5110282;28;20204;-55
2021/12/04 00:02:28;;;;;;;29.03;21.87;;;;;;;10.26;86.61;98757.38;5110764;28;20283;-58
2021/12/04 00:04:57;;;;;;;30.00;20.47;;;;;;;10.26;86.09;98763.38;5110943;28;20247;-58
2021/12/04 00:07:24;;;;;;;26.07;19.83;;;;;;;10.23;85.85;98762.50;5110802;28;20602;-58
2021/12/04 00:09:57;;;;;;;26.20;18.87;;;;;;;10.26;86.36;98770.22;5110942;28;20203;-58
2021/12/04 00:12:25;;;;;;;23.97;19.37;;;;;;;10.19;86.20;98774.44;5110752;28;20187;-58
2021/12/04 00:14:52;;;;;;;23.33;17.67;;;;;;;10.13;86.83;98776.13;5110763;28;20193;-58
2021/12/04 00:17:20;;;;;;;19.67;16.87;;;;;;;10.12;86.83;98788.06;5110323;28;20196;-58
2021/12/04 00:19:46;;;;;;;18.63;15.33;;;;;;;10.07;85.82;98789.75;5110742;28;20182;-57
2021/12/04 00:22:13;;;;;;;19.30;13.90;;;;;;;10.10;85.75;98782.06;5110731;28;20197;-58
2021/12/04 00:24:40;;;;;;;22.10;13.27;;;;;;;10.15;85.52;98780.44;5110455;28;20227;-58
2021/12/04 00:27:07;;;;;;;15.77;11.87;;;;;;;10.18;84.99;98775.31;5110661;28;20194;-58
2021/12/04 00:29:36;;;;;;;16.73;11.93;;;;;;;10.21;84.83;98775.34;5110384;28;20197;-58
2021/12/04 00:32:09;;;;;;;15.73;12.10;;;;;;;10.26;84.84;98788.19;5110539;28;20193;-57
2021/12/04 00:34:40;;;;;;;15.03;12.53;;;;;;;10.27;84.63;98775.38;5110269;28;20194;-58
2021/12/04 00:37:27;;;;;;;14.10;11.60;;;;;;;10.35;84.34;98777.97;5110176;28;20197;-56
2021/12/04 00:51:07;;;;;;;12.83;10.13;;;;;;;10.36;82.90;98787.38;5109966;28;20189;-57
2021/12/04 00:53:34;;;;;;;15.80;11.23;;;;;;;10.47;83.04;98788.28;5110032;28;20200;-57
2021/12/04 00:56:01;;;;;;;16.77;11.37;;;;;;;10.48;82.73;98785.75;5110425;28;20194;-57
2021/12/04 00:58:28;;;;;;;17.30;11.87;;;;;;;10.49;82.39;98778.91;5110084;28;20656;-57
2021/12/04 01:00:56;;;;;;;15.30;11.23;;;;;;;10.47;82.24;98788.28;5109861;28;20222;-57
2021/12/04 01:03:24;;;;;;;16.30;10.87;;;;;;;10.45;82.52;98785.75;5110163;28;20221;-57
2021/12/04 01:05:51;;;;;;;14.13;11.17;;;;;;;10.50;82.33;98784.03;5110063;28;20201;-57
2021/12/04 01:08:18;;;;;;;16.40;11.00;;;;;;;10.50;82.66;98796.03;5110746;28;20201;-57
2021/12/04 01:10:46;;;;;;;14.70;9.77;;;;;;;10.46;81.90;98782.34;5114004;28;20216;-57
2021/12/04 01:13:13;;;;;;;13.77;10.57;;;;;;;10.43;81.84;98784.00;5113763;28;20197;-57
2021/12/04 01:15:40;;;;;;;14.83;10.77;;;;;;;10.40;82.08;98777.16;5113643;28;20186;-58
2021/12/04 01:18:09;;;;;;;13.60;10.50;;;;;;;10.38;82.23;98783.13;5113456;28;20194;-57
2021/12/04 01:20:36;;;;;;;13.17;10.10;;;;;;;10.36;81.72;98774.53;5113558;28;20189;-57
2021/12/04 01:23:04;;;;;;;14.10;9.73;;;;;;;10.39;82.25;98788.25;5113408;28;20680;-57
2021/12/04 01:25:31;;;;;;;11.77;8.47;;;;;;;10.39;81.89;98770.28;5113483;28;20200;-57
2021/12/04 01:27:58;;;;;;;12.40;9.77;;;;;;;10.38;81.58;98753.16;5113478;28;20190;-57
2021/12/04 01:30:24;;;;;;;13.83;9.13;;;;;;;10.40;81.55;98755.75;5113464;28;20197;-57
2021/12/04 01:32:51;;;;;;;12.47;9.50;;;;;;;10.40;81.46;98753.19;5113119;28;20190;-57
2021/12/04 01:35:20;;;;;;;16.43;9.57;;;;;;;10.44;81.61;98752.31;5113216;28;20190;-57
2021/12/04 01:37:46;;;;;;;14.00;9.10;;;;;;;10.48;81.07;98749.81;5113303;28;20194;-57
2021/12/04 01:40:14;;;;;;;10.80;8.33;;;;;;;10.47;81.54;98750.63;5113247;28;20186;-58
2021/12/04 01:42:40;;;;;;;10.77;7.57;;;;;;;10.47;80.98;98736.94;5113399;28;20303;-57
2021/12/04 01:45:08;;;;;;;8.60;7.77;;;;;;;10.45;80.82;98736.09;5113207;28;20228;-57
2021/12/04 01:47:36;;;;;;;11.37;8.27;;;;;;;10.41;80.99;98724.09;5113169;28;20671;-57
2021/12/04 01:50:03;;;;;;;8.57;6.90;;;;;;;10.48;80.57;98734.38;5113534;28;20187;-57
2021/12/04 01:52:32;;;;;;;8.27;6.70;;;;;;;10.46;79.94;98741.25;5113183;28;20200;-57
2021/12/04 01:54:59;;;;;;;10.57;7.03;;;;;;;10.42;80.04;98739.50;5113225;28;20191;-57
2021/12/04 01:57:26;;;;;;;7.53;5.80;;;;;;;10.40;80.44;98732.63;5113145;28;20292;-57
2021/12/04 01:59:54;;;;;;;6.77;5.97;;;;;;;10.36;80.66;98759.13;5112913;28;20191;-57
2021/12/04 02:02:21;;;;;;;8.23;5.80;;;;;;;10.34;80.82;98745.44;5112512;28;20230;-57
2021/12/04 02:04:48;;;;;;;6.97;6.27;;;;;;;10.37;80.44;98738.63;5113120;28;20224;-57
2021/12/04 02:07:15;;;;;;;9.03;6.43;;;;;;;10.36;80.54;98734.31;5112845;28;20580;-57
2021/12/04 02:09:43;;;;;;;9.40;5.83;;;;;;;10.36;80.96;98728.31;5112766;28;20191;-57
2021/12/04 02:12:11;;;;;;;9.63;6.33;;;;;;;10.40;80.98;98730.06;5112582;28;20190;-57
2021/12/04 02:14:41;;;;;;;10.63;6.97;;;;;;;10.41;80.86;98726.66;5113007;28;20174;-57
2021/12/04 02:17:09;;;;;;;8.20;6.60;;;;;;;10.42;80.53;98711.25;5112886;28;20202;-57
2021/12/04 02:19:36;;;;;;;7.97;7.03;;;;;;;10.36;81.17;98700.94;5118799;27;20697;-57
2021/12/04 02:22:05;;;;;;;10.03;7.60;;;;;;;10.44;80.76;98706.97;5117575;27;20190;-57
2021/12/04 02:24:32;;;;;;;17.87;7.60;;;;;;;10.45;81.32;98700.13;5112697;28;20202;-57
2021/12/04 02:26:59;;;;;;;10.43;6.97;;;;;;;10.42;81.50;98695.84;5112273;28;20687;-57
2021/12/04 02:29:26;;;;;;;9.73;6.67;;;;;;;10.43;81.07;98702.69;5112522;28;20194;-57
2021/12/04 02:31:55;;;;;;;7.87;6.17;;;;;;;10.46;79.50;98689.03;5112153;28;20203;-57
2021/12/04 02:34:23;;;;;;;7.23;5.90;;;;;;;10.44;79.40;98695.84;5112524;28;20285;-57
2021/12/04 02:36:50;;;;;;;7.17;6.40;;;;;;;10.43;79.42;98695.00;5112240;28;20200;-57
2021/12/04 02:39:28;;;;;;;7.73;5.73;;;;;;;10.41;78.93;98686.41;5111988;28;20197;-57
2021/12/04 02:41:56;;;;;;;6.87;6.00;;;;;;;10.37;79.03;98671.00;5112178;28;20189;-57
2021/12/04 02:44:33;;;;;;;8.63;5.43;;;;;;;10.38;79.77;98671.00;5111848;28;20214;-57
2021/12/04 02:47:00;;;;;;;6.67;5.00;;;;;;;10.40;79.34;98666.75;5112075;28;20193;-57
2021/12/04 02:49:27;;;;;;;6.93;5.30;;;;;;;10.35;79.36;98668.44;5112084;28;20198;-57
2021/12/04 02:51:54;;;;;;;8.13;5.10;;;;;;;10.32;79.00;98662.44;5111871;28;20216;-57
2021/12/04 02:54:21;;;;;;;4.87;4.37;;;;;;;10.38;78.75;98660.72;5111538;28;20202;-57
2021/12/04 02:56:51;;;;;;;6.00;4.93;;;;;;;10.33;78.82;98667.56;5111660;28;20193;-57
2021/12/04 02:59:18;;;;;;;6.73;5.60;;;;;;;10.25;78.97;98670.94;5111754;28;20197;-57
2021/12/04 03:01:45;;;;;;;6.23;4.73;;;;;;;10.23;79.12;98696.63;5111434;28;20225;-57
2021/12/04 03:04:14;;;;;;;5.57;4.87;;;;;;;10.26;79.32;98717.16;5111552;28;20734;-57
2021/12/04 03:06:43;;;;;;;6.63;5.37;;;;;;;10.21;79.35;98713.72;5111440;28;20193;-57
2021/12/04 03:09:10;;;;;;;6.00;5.40;;;;;;;10.22;79.11;98709.47;5111428;28;20189;-57
2021/12/04 03:11:37;;;;;;;7.73;5.63;;;;;;;10.17;79.56;98705.97;5111367;28;20768;-57
2021/12/04 03:14:07;;;;;;;5.40;4.70;;;;;;;10.08;80.11;98710.19;5111596;28;20190;-57
2021/12/04 03:16:35;;;;;;;7.17;5.37;;;;;;;9.80;79.36;98676.69;5111319;28;20186;-57
2021/12/04 03:19:03;;;;;;;7.80;5.87;;;;;;;9.88;79.94;98704.09;5111181;28;20203;-57
2021/12/04 03:21:31;;;;;;;5.80;5.20;;;;;;;9.90;80.12;98712.66;5111447;28;20193;-57
2021/12/04 03:24:01;;;;;;;5.63;5.13;;;;;;;9.88;80.48;98716.94;5112090;27;20261;-57
2021/12/04 03:26:28;;;;;;;7.97;5.13;;;;;;;9.86;80.74;98722.91;5121059;27;20591;-57
2021/12/04 03:28:57;;;;;;;5.97;4.97;;;;;;;9.88;80.64;98723.75;5131625;27;20193;-57
2021/12/04 03:31:40;;;;;;;6.17;5.30;;;;;;;9.88;80.74;98724.63;5131040;27;20225;-57
2021/12/04 03:40:10;;;;;;;6.63;5.97;;;;;;;9.81;80.96;98730.53;5048268;28;20230;-57
2021/12/04 03:42:41;;;;;;;6.80;5.70;;;;;;;9.83;81.42;98723.72;5124507;27;20623;-57
2021/12/04 03:45:11;;;;;;;5.83;5.17;;;;;;;9.82;81.25;98732.28;5131274;27;20215;-57
2021/12/04 03:47:43;;;;;;;5.67;5.17;;;;;;;9.82;81.54;98731.41;5131270;27;20666;-57
2021/12/04 03:50:10;;;;;;;7.23;5.47;;;;;;;9.75;81.47;98734.78;5131206;27;20201;-58
2021/12/04 03:52:37;;;;;;;5.83;5.30;;;;;;;9.75;81.44;98737.34;5131699;27;20203;-58
2021/12/04 03:55:05;;;;;;;5.90;5.30;;;;;;;9.73;81.27;98723.63;5131662;27;20200;-57
2021/12/04 03:57:32;;;;;;;5.87;5.27;;;;;;;9.80;80.75;98733.13;5131363;27;20684;-57
2021/12/04 04:00:00;;;;;;;6.07;5.47;;;;;;;9.80;80.61;98726.28;5131034;27;20669;-57
2021/12/04 04:02:28;;;;;;;6.93;5.60;;;;;;;9.80;80.27;98730.56;5131337;27;20193;-57
2021/12/04 04:04:56;;;;;;;6.13;5.53;;;;;;;9.79;80.58;98734.81;5131705;28;20223;-58
2021/12/04 04:07:23;;;;;;;6.03;5.47;;;;;;;9.74;80.42;98733.94;5131487;28;20196;-57
2021/12/04 04:09:50;;;;;;;6.10;5.50;;;;;;;9.64;80.86;98713.34;5131838;28;20196;-57
2021/12/04 04:12:17;;;;;;;6.30;4.97;;;;;;;9.68;81.09;98726.19;5130955;28;20197;-57
2021/12/04 04:14:44;;;;;;;6.23;5.60;;;;;;;9.66;80.87;98729.59;5114998;28;20214;-57
2021/12/04 04:17:11;;;;;;;7.20;5.07;;;;;;;9.61;80.69;98728.69;5110812;28;20587;-57
2021/12/04 04:19:38;;;;;;;6.47;5.83;;;;;;;9.63;81.06;98717.59;5117760;28;20236;-57
2021/12/04 04:22:07;;;;;;;6.03;5.43;;;;;;;9.61;80.68;98718.44;5131459;28;20189;-57
2021/12/04 04:24:34;;;;;;;6.20;5.30;;;;;;;9.63;80.96;98724.44;5131077;27;20219;-57
2021/12/04 04:27:01;;;;;;;5.77;5.20;;;;;;;9.64;80.62;98718.47;5131086;28;20200;-57
2021/12/04 04:29:28;;;;;;;8.00;6.13;;;;;;;9.63;80.06;98722.72;5131089;28;20193;-57
2021/12/04 04:31:55;;;;;;;6.73;5.67;;;;;;;9.50;80.07;98713.22;5129559;28;20201;-57
2021/12/04 04:34:27;;;;;;;5.57;5.00;;;;;;;9.53;79.98;98736.34;5131133;28;20576;-57
2021/12/04 04:37:06;;;;;;;6.50;5.40;;;;;;;9.52;80.80;98739.75;5130794;28;20198;-57
2021/12/04 04:58:59;;;;;;;7.20;5.70;;;;;;;9.61;79.24;98744.09;5134826;27;20196;-57
2021/12/04 05:12:24;;;;;;;6.40;5.80;;;;;;;9.55;78.67;98744.91;5113934;28;20189;-57
2021/12/04 05:14:56;;;;;;;6.60;5.80;;;;;;;9.53;78.46;98754.28;5113675;28;20655;-56
2021/12/04 05:17:40;;;;;;;6.17;5.67;;;;;;;9.56;78.81;98756.84;5113978;28;20971;-57
2021/12/04 05:20:08;;;;;;;7.00;5.50;;;;;;;9.60;78.55;98748.34;5113872;28;20207;-57
2021/12/04 05:22:35;;;;;;;9.07;5.20;;;;;;;9.61;78.37;98747.50;5125678;27;20213;-57
2021/12/04 05:25:02;;;;;;;7.13;5.33;;;;;;;9.63;77.78;98758.63;5134233;27;20221;-57
2021/12/04 05:27:30;;;;;;;6.23;5.63;;;;;;;9.59;77.93;98756.00;5133826;27;20189;-57
2021/12/04 05:29:57;;;;;;;6.57;5.50;;;;;;;9.57;77.36;98753.44;5134296;27;20272;-57
2021/12/04 05:32:24;;;;;;;6.07;5.47;;;;;;;9.62;77.54;98762.03;5134059;27;20204;-57
2021/12/04 05:34:51;;;;;;;5.93;5.33;;;;;;;9.62;77.53;98759.47;5134000;27;20197;-57
2021/12/04 05:37:18;;;;;;;6.00;4.90;;;;;;;9.59;77.60;98764.56;5133963;27;20187;-57
2021/12/04 05:39:45;;;;;;;5.77;5.27;;;;;;;9.60;78.14;98758.59;5133875;27;20575;-57
2021/12/04 05:42:12;;;;;;;6.03;5.20;;;;;;;9.64;77.84;98764.63;5133750;27;20189;-57
2021/12/04 05:44:42;;;;;;;6.80;5.57;;;;;;;9.68;77.37;98768.91;5133743;27;20227;-57
2021/12/04 05:47:16;;;;;;;6.07;5.27;;;;;;;9.65;77.14;98768.88;5133906;27;20191;-57
2021/12/04 05:49:52;;;;;;;5.63;5.03;;;;;;;9.63;77.68;98768.91;5133545;27;20204;-57
2021/12/04 05:52:33;;;;;;;6.10;5.27;;;;;;;9.57;77.60;98768.84;5133531;27;20707;-57
2021/12/04 05:55:12;;;;;;;6.30;5.25;;;;;;;9.60;77.32;98773.13;5132823;27;20465;-57
2021/12/04 05:57:40;;;;;;;5.00;4.33;;;;;;;9.59;76.53;98774.81;5133398;27;20196;-57
2021/12/04 06:00:12;;;;;;;5.77;5.20;;;;;;;9.55;76.67;98775.66;5133160;27;20203;-57
2021/12/04 06:02:39;;;;;;;5.83;5.23;;;;;;;9.50;76.67;98772.22;5133219;27;20635;-57
2021/12/04 06:05:07;;;;;;;8.03;4.93;;;;;;;9.56;76.10;98767.09;5133019;27;20222;-57
2021/12/04 06:07:34;;;;;;;6.77;5.03;;;;;;;9.54;76.40;98775.63;5133343;27;20521;-56
2021/12/04 06:10:01;;;;;;;4.73;4.33;;;;;;;9.59;76.29;98762.00;5126395;27;21020;-56
2021/12/04 06:12:28;;;;;;;6.33;5.17;;;;;;;9.61;76.09;98780.84;5116195;27;20221;-56
2021/12/04 06:14:55;;;;;;;5.68;5.07;;;;;;;9.65;76.12;98777.44;5111889;28;20437;-56
2021/12/04 06:17:25;;;;;;;5.30;4.80;;;;;;;9.76;75.92;98780.97;5112391;27;20199;-56
2021/12/04 06:22:41;;;;;;;6.17;4.90;;;;;;;9.82;75.24;98787.84;5132779;27;20181;-56
2021/12/04 06:25:10;;;;;;;4.90;4.50;;;;;;;9.78;74.92;98786.97;5132416;27;20196;-56
2021/12/04 06:27:37;;;;;;;5.20;4.70;;;;;;;9.82;74.88;98785.28;5132553;27;20205;-56
2021/12/04 06:30:04;;;;;;;5.60;4.87;;;;;;;9.79;74.99;98791.25;5132672;27;20204;-56
2021/12/04 06:32:35;;;;;;;5.40;4.90;;;;;;;9.77;75.05;98803.22;5132798;27;20182;-56
2021/12/04 06:35:02;;;;;;;6.90;5.13;;;;;;;9.68;75.20;98782.59;5132415;27;20193;-56
2021/12/04 06:37:29;;;;;;;5.17;4.67;;;;;;;9.65;75.39;98800.53;5132255;27;20234;-57
2021/12/04 06:39:56;;;;;;;6.87;4.87;;;;;;;9.63;75.28;98809.94;5132155;27;20196;-57
2021/12/04 06:42:23;;;;;;;5.10;4.60;;;;;;;9.62;75.74;98823.59;5132285;27;20189;-56
2021/12/04 06:44:53;;;;;;;5.10;4.60;;;;;;;9.54;75.77;98825.22;5132426;27;20217;-56
2021/12/04 06:47:20;;;;;;;4.97;4.37;;;;;;;9.50;76.19;98820.94;5127286;27;20720;-57
2021/12/04 06:49:50;;;;;;;5.37;4.87;;;;;;;9.44;77.01;98816.59;5120647;27;20197;-57
2021/12/04 06:52:20;;;;;;;5.07;4.53;;;;;;;9.51;77.14;98830.31;5116463;27;20196;-57
2021/12/04 06:54:54;;;;;;;5.87;5.27;;;;;;;9.45;77.70;98835.38;5131150;27;20613;-57
2021/12/04 06:57:21;;;;;;;7.13;5.47;;;;;;;9.31;79.68;98842.09;5132341;27;20188;-57
2021/12/04 06:59:49;;;;;;;5.93;5.30;;;;;;;9.31;81.08;98836.97;5132136;27;20200;-57
2021/12/04 07:02:16;;;;;;;8.10;5.83;;;;;;;9.26;82.18;98849.72;5131553;27;20232;-57
2021/12/04 07:04:43;;;;;;;6.80;6.10;;;;;;;9.21;82.58;98848.81;5132043;27;20325;-57
2021/12/04 07:07:13;;;;;;;6.40;5.80;;;;;;;9.15;83.04;98845.31;5131245;27;20196;-56
2021/12/04 07:09:40;;;;;;;6.80;6.07;;;;;;;9.09;83.23;98840.13;5131573;27;20278;-57
2021/12/04 07:12:09;;;;;;;7.33;6.57;;;;;;;9.11;83.72;98856.38;5131798;27;20708;-57
2021/12/04 07:14:36;;;;;;;9.37;7.00;;;;;;;9.06;83.74;98858.03;5131951;27;20200;-57
2021/12/04 07:17:04;;;;;;;8.90;6.53;;;;;;;9.02;84.16;98863.94;5131854;27;20189;-57
2021/12/04 07:19:32;;;;;;;10.33;6.67;;;;;;;8.90;83.14;98847.59;5131657;27;20904;-57
2021/12/04 07:22:01;;;;;;;7.83;6.50;;;;;;;8.96;82.81;98863.88;5131939;27;20192;-56
2021/12/04 07:24:31;;;;;;;7.60;6.87;;;;;;;9.01;82.19;98869.94;5131482;27;20283;-57
2021/12/04 07:26:58;;;;;;;7.83;6.40;;;;;;;9.01;82.28;98867.38;5128228;27;20201;-56
2021/12/04 07:29:25;;;;;;;8.40;6.50;;;;;;;9.01;81.82;98872.50;5122201;27;20194;-57
2021/12/04 07:31:52;;;;;;;8.18;7.05;;;;;;;9.08;81.54;98870.00;5131080;27;20433;-56
2021/12/04 07:34:19;;;;;;;7.47;6.70;;;;;;;9.15;80.52;98865.81;5131438;27;20272;-57
2021/12/04 07:36:46;;;;;;;7.10;6.40;;;;;;;9.11;79.98;98871.75;5131561;27;20191;-57
2021/12/04 07:39:13;;;;;;;7.60;6.43;;;;;;;9.17;80.40;98869.28;5130605;27;20197;-57
2021/12/04 07:41:43;;;;;;;7.83;7.03;;;;;;;9.22;80.51;98870.19;5131060;27;20231;-57
2021/12/04 07:44:12;;;;;;;9.37;7.67;;;;;;;9.25;81.05;98867.66;5130963;27;20689;-58
2021/12/04 07:46:40;;;;;;;7.73;6.93;;;;;;;9.26;80.63;98875.34;5131142;27;20694;-59
2021/12/04 07:49:07;;;;;;;7.33;6.50;;;;;;;9.22;81.06;98873.59;5130840;27;20182;-59
2021/12/04 07:51:35;;;;;;;8.60;7.40;;;;;;;9.24;81.14;98878.72;5129814;27;20195;-60
2021/12/04 07:54:02;;;;;;;10.37;7.87;;;;;;;9.29;81.35;98885.63;5130942;27;20185;-60
2021/12/04 07:56:29;;;;;;;7.47;6.67;;;;;;;9.32;80.91;98890.78;5131054;27;20193;-60
2021/12/04 07:58:58;;;;;;;7.50;6.63;;;;;;;9.20;79.76;98865.00;5129668;27;20272;-59
2021/12/04 08:01:25;;;;;;;11.73;7.33;;;;;;;9.34;80.69;98890.81;5129223;27;20223;-60
2021/12/04 08:03:52;;;;;;;7.47;5.93;;;;;;;9.46;80.41;98894.38;5129314;27;20593;-60
2021/12/04 08:06:19;;;;;;;10.00;6.60;;;;;;;9.56;79.68;98899.63;5129341;27;20289;-61
2021/12/04 08:08:46;;;;;;;7.30;6.57;;;;;;;9.54;78.68;98904.72;5129563;28;20547;-60
2021/12/04 08:11:13;;;;;;;7.93;7.13;;;;;;;9.58;78.60;98903.91;5129343;27;20190;-61
2021/12/04 08:13:40;;;;;;;8.77;6.87;;;;;;;9.64;78.08;98914.22;5130503;27;20182;-60
2021/12/04 08:16:08;;;;;;;11.03;7.03;;;;;;;9.76;78.53;98911.78;5130789;28;20196;-59
2021/12/04 08:18:35;;;;;;;9.30;6.80;;;;;;;9.83;76.93;98913.56;5133204;27;20422;-60
2021/12/04 08:21:02;;;;;;;8.17;6.27;;;;;;;9.95;77.20;98918.81;5134784;27;20262;-60
2021/12/04 08:23:29;;;;;;;9.67;7.50;;;;;;;10.07;76.73;98920.63;5134673;27;20193;-60
2021/12/04 08:25:56;;;;;;;10.30;7.20;;;;;;;10.11;75.92;98927.50;5132657;27;20204;-60
2021/12/04 08:28:23;;;;;;;8.60;7.03;;;;;;;10.11;75.45;98924.94;5117585;27;20204;-60
2021/12/04 08:30:50;;;;;;;7.57;5.90;;;;;;;10.13;75.50;98918.16;5134430;27;20678;-60
2021/12/04 08:33:19;;;;;;;6.63;6.00;;;;;;;10.25;75.37;98915.69;5135037;27;20222;-60
2021/12/04 08:35:46;;;;;;;7.20;5.57;;;;;;;10.29;74.49;98916.56;5134680;27;20191;-61
2021/12/04 08:38:14;;;;;;;7.70;5.60;;;;;;;10.22;73.52;98900.25;5135509;27;20183;-61
2021/12/04 08:40:42;;;;;;;7.50;6.33;;;;;;;10.26;73.71;98903.72;5135126;27;20188;-61
2021/12/04 08:43:10;;;;;;;7.10;5.57;;;;;;;10.29;73.28;98903.75;5134910;27;20197;-60
2021/12/04 08:45:38;;;;;;;6.80;5.40;;;;;;;10.39;72.81;98905.50;5134638;27;20212;-61
2021/12/04 08:48:05;;;;;;;6.40;5.17;;;;;;;10.47;72.15;98911.56;5134711;27;20724;-61
2021/12/04 08:50:36;;;;;;;8.27;6.63;;;;;;;10.59;71.96;98901.38;5134291;27;20250;-61
2021/12/04 08:53:06;;;;;;;10.10;6.27;;;;;;;10.53;72.40;98902.22;5134472;27;20193;-60
2021/12/04 08:55:35;;;;;;;8.83;6.43;;;;;;;10.62;72.34;98894.56;5134525;27;20189;-60
2021/12/04 08:58:02;;;;;;;7.87;6.07;;;;;;;10.59;71.91;98873.13;5134334;27;20189;-60
2021/12/04 09:00:33;;;;;;;6.60;5.93;;;;;;;10.81;71.89;98900.66;5133690;27;20666;-60
2021/12/04 09:03:01;;;;;;;9.30;6.87;;;;;;;10.84;71.95;98892.13;5134040;27;20545;-61
2021/12/04 09:05:29;;;;;;;9.73;6.40;;;;;;;10.91;72.46;98889.59;5134016;27;20228;-61
2021/12/04 09:07:58;;;;;;;10.30;7.50;;;;;;;11.01;71.42;98896.50;5133936;27;20193;-59
2021/12/04 09:10:25;;;;;;;9.40;6.40;;;;;;;11.06;71.49;98891.38;5133719;27;20190;-60
2021/12/04 09:12:52;;;;;;;9.00;6.77;;;;;;;11.05;71.48;98880.22;5134019;27;20199;-60
2021/12/04 09:15:22;;;;;;;7.73;5.90;;;;;;;11.10;71.27;98890.53;5133885;27;20185;-60
2021/12/04 09:17:49;;;;;;;8.10;6.60;;;;;;;11.10;71.89;98896.53;5133873;27;20203;-60
2021/12/04 09:20:17;;;;;;;7.90;6.27;;;;;;;11.18;70.97;98884.56;5134014;27;20200;-59
2021/12/04 09:22:45;;;;;;;10.13;6.90;;;;;;;11.19;71.05;98883.72;5133956;27;20189;-60
2021/12/04 09:25:17;;;;;;;7.57;6.43;;;;;;;11.23;71.17;98888.00;5133529;27;20280;-61
2021/12/04 09:27:58;;;;;;;8.23;6.73;;;;;;;11.24;70.08;98876.88;5133556;27;20186;-60
2021/12/04 09:30:56;;;;;;;7.00;6.27;;;;;;;11.24;70.84;98873.44;5133296;27;20278;-60
2021/12/04 10:01:10;;;;;;;8.63;7.43;;;;;;;11.44;69.82;98814.34;5132820;27;20231;-60
2021/12/04 10:15:11;;;;;;;9.70;7.47;;;;;;;11.74;68.42;98824.72;5133045;27;20239;-60
2021/12/04 10:20:40;;;;;;;9.47;7.37;;;;;;;11.86;67.90;98811.88;5109339;27;20185;-60
2021/12/04 10:23:24;;;;;;;10.30;8.33;;;;;;;11.87;68.23;98830.75;5132434;27;20211;-61
2021/12/04 10:34:13;;;;;;;11.97;9.93;;;;;;;11.95;67.94;98822.13;5111845;28;20187;-61
2021/12/04 10:36:41;;;;;;;12.93;9.53;;;;;;;11.99;68.28;98831.59;5111276;28;20248;-61
2021/12/04 10:39:10;;;;;;;13.20;9.50;;;;;;;11.98;68.27;98829.00;5111628;28;20697;-60
2021/12/04 10:41:40;;;;;;;12.10;8.83;;;;;;;12.05;68.27;98825.59;5110634;28;20247;-62
2021/12/04 10:44:16;;;;;;;12.97;9.63;;;;;;;12.17;67.40;98835.84;5111288;28;20653;-60
2021/12/04 10:46:59;;;;;;;13.67;9.43;;;;;;;12.38;67.31;98836.72;5111732;28;20278;-61
2021/12/04 10:49:39;;;;;;;13.27;10.00;;;;;;;12.38;68.17;98841.00;5111418;28;20726;-60
2021/12/04 10:52:17;;;;;;;12.83;10.17;;;;;;;12.37;67.85;98842.72;5111273;28;20186;-60
2021/12/04 10:54:50;;;;;;;12.10;9.90;;;;;;;12.51;67.41;98836.69;5111386;28;20240;-60
2021/12/04 11:00:18;;;;;;;12.20;10.23;;;;;;;12.60;67.13;98834.94;5062510;28;20190;-60
2021/12/04 11:02:50;;;;;;;10.60;9.33;;;;;;;12.66;66.94;98839.22;5111601;28;20506;-60
2021/12/04 11:19:42;;;;;;;10.93;7.67;;;;;;;12.57;66.97;98831.50;5110984;28;20196;-61
2021/12/04 11:22:22;;;;;;;9.27;7.60;;;;;;;12.62;66.51;98828.06;5110849;28;20266;-60
2021/12/04 11:25:12;;;;;;;13.00;9.43;;;;;;;12.62;67.04;98824.63;5110425;28;20653;-60
2021/12/04 11:28:01;;;;;;;13.07;11.00;;;;;;;12.57;67.13;98822.06;5129367;27;20201;-60
2021/12/04 11:36:18;;;;;;;14.07;10.20;;;;;;;12.42;67.28;98811.78;5123328;27;20208;-60
2021/12/04 11:38:50;;;;;;;11.97;9.40;;;;;;;12.31;67.59;98803.22;5110303;28;20186;-60
2021/12/04 11:41:29;;;;;;;11.27;9.50;;;;;;;12.37;67.41;98808.38;5110233;28;20214;-60
2021/12/04 11:44:01;;;;;;;15.97;11.43;;;;;;;12.35;67.86;98813.53;5110355;28;20219;-60
2021/12/04 11:46:42;;;;;;;14.67;10.70;;;;;;;12.46;67.39;98810.06;5115412;27;20217;-60
2021/12/04 11:49:21;;;;;;;12.00;10.17;;;;;;;12.50;67.56;98817.78;5130249;27;20196;-60
2021/12/04 11:51:56;;;;;;;12.27;10.17;;;;;;;12.64;67.84;98810.00;5128403;27;20200;-61
2021/12/04 11:54:26;;;;;;;15.90;11.93;;;;;;;12.74;69.99;98807.41;5127864;27;20185;-61
2021/12/04 11:57:02;;;;;;;17.90;12.87;;;;;;;12.84;70.37;98816.81;5130639;27;20174;-62
2021/12/04 11:59:29;;;;;;;14.30;12.30;;;;;;;12.90;72.43;98821.09;5128824;27;20188;-61
2021/12/04 12:02:00;;;;;;;17.97;13.83;;;;;;;12.94;72.53;98820.22;5130303;27;20225;-62
2021/12/04 12:04:37;;;;;;;16.20;12.80;;;;;;;12.95;72.90;98812.50;5128336;27;20233;-61
2021/12/04 12:07:14;;;;;;;18.53;12.53;;;;;;;12.87;72.66;98815.94;5130456;28;20216;-61
2021/12/04 12:09:41;;;;;;;15.30;13.13;;;;;;;12.87;72.90;98815.94;5130885;27;20211;-61
2021/12/04 12:12:12;;;;;;;15.07;12.90;;;;;;;12.89;72.89;98822.81;5130835;28;20193;-61
2021/12/04 12:14:47;;;;;;;19.13;12.83;;;;;;;12.94;72.56;98818.50;5130784;27;20517;-60
2021/12/04 12:17:15;;;;;;;22.10;13.00;;;;;;;12.98;72.39;98815.06;5130782;28;20216;-60
2021/12/04 12:19:50;;;;;;;21.33;14.93;;;;;;;12.72;72.61;98767.03;5130773;28;20199;-60
2021/12/04 12:22:34;;;;;;;17.40;14.00;;;;;;;13.07;72.67;98815.88;5130967;27;20258;-61
2021/12/04 12:25:27;;;;;;;17.77;13.03;;;;;;;13.16;72.36;98814.13;5130295;28;20634;-61
2021/12/04 12:31:46;;;;;;;16.25;13.55;;;;;;;13.23;72.16;98815.81;5130374;27;20920;-61
2021/12/04 12:33:39;;;;;;;12.67;11.13;;;;;;;13.29;70.65;98815.81;5098893;27;20190;-61
2021/12/04 12:36:09;;;;;;;14.53;12.00;;;;;;;13.07;70.45;98814.19;5130489;27;20201;-60
2021/12/04 12:38:43;;;;;;;15.53;13.13;;;;;;;13.16;70.90;98814.13;5130625;27;20201;-61
2021/12/04 12:41:12;;;;;;;15.27;12.90;;;;;;;13.17;71.66;98808.13;5130567;28;21029;-61
2021/12/04 12:43:48;;;;;;;16.93;14.50;;;;;;;13.07;72.22;98808.13;5130416;28;20196;-60
2021/12/04 12:46:16;;;;;;;15.70;13.50;;;;;;;13.09;72.98;98809.00;5130619;27;20227;-61
2021/12/04 12:48:49;;;;;;;17.20;13.90;;;;;;;13.05;72.65;98802.97;5130268;27;20195;-60
2021/12/04 12:51:23;;;;;;;18.23;13.47;;;;;;;13.09;72.14;98815.03;5130413;28;20289;-61
2021/12/04 12:53:51;;;;;;;16.63;13.83;;;;;;;13.12;72.47;98822.75;5130272;27;20222;-60
2021/12/04 12:56:18;;;;;;;15.27;13.67;;;;;;;12.96;73.09;98810.78;5130341;27;20286;-61
2021/12/04 12:58:52;;;;;;;17.70;14.70;;;;;;;12.98;73.11;98830.53;5129981;28;20238;-59
2021/12/04 13:12:59;;;;;;;16.87;14.37;;;;;;;13.17;72.92;98841.66;5133877;27;20177;-61
2021/12/04 13:15:35;;;;;;;17.87;14.97;;;;;;;12.91;73.30;98841.72;5133666;27;20189;-60
2021/12/04 13:18:16;;;;;;;23.23;15.30;;;;;;;12.70;73.73;98849.53;5133657;27;20705;-61
2021/12/04 13:20:44;;;;;;;18.80;15.60;;;;;;;12.47;74.64;98846.13;5133598;27;20268;-61
2021/12/04 13:23:12;;;;;;;19.37;14.63;;;;;;;12.31;75.27;98842.72;5124929;27;20201;-61
2021/12/04 13:25:49;;;;;;;19.70;16.33;;;;;;;12.25;75.45;98845.28;5133258;27;20211;-62
2021/12/04 13:30:46;;;;;;;19.53;16.17;;;;;;;12.08;76.36;98848.75;5133735;27;20704;-61
2021/12/04 13:33:13;;;;;;;17.83;15.37;;;;;;;12.03;76.35;98837.59;5133452;27;20667;-61
2021/12/04 13:35:44;;;;;;;18.33;14.80;;;;;;;11.96;76.49;98838.44;5123877;27;20655;-62
2021/12/04 13:38:13;;;;;;;22.70;16.67;;;;;;;11.88;76.45;98842.72;5122074;27;20193;-61
2021/12/04 13:40:43;;;;;;;24.50;17.37;;;;;;;11.91;76.92;98842.75;5129593;27;20190;-60
2021/12/04 13:43:10;;;;;;;28.13;17.10;;;;;;;11.95;77.34;98852.19;5131621;27;20221;-60
2021/12/04 13:45:37;;;;;;;20.17;16.67;;;;;;;11.92;77.38;98849.63;5130509;27;20182;-61
2021/12/04 13:48:04;;;;;;;21.03;16.10;;;;;;;11.92;77.57;98857.34;5131739;27;20211;-60
2021/12/04 13:50:47;;;;;;;20.13;15.30;;;;;;;11.96;76.96;98862.47;5129626;27;20192;-61
2021/12/04 13:53:20;;;;;;;17.23;14.67;;;;;;;11.94;77.03;98861.63;5129824;27;20194;-58
2021/12/04 13:55:53;;;;;;;27.27;19.10;;;;;;;11.89;77.65;98859.91;5131905;27;20190;-58
2021/12/04 13:58:20;;;;;;;21.00;15.73;;;;;;;11.88;78.11;98858.19;5131210;27;20174;-58
2021/12/04 14:00:47;;;;;;;19.73;15.90;;;;;;;11.86;77.41;98863.34;5130677;27;20220;-57
2021/12/04 14:03:21;;;;;;;18.77;15.60;;;;;;;11.81;77.92;98865.88;5131450;27;20273;-58